createdAt,value
2018-05-13T00:00:09.697Z,99509.08
2018-05-13T00:02:37.241Z,99509.42
2018-05-13T00:05:04.761Z,99502.63
2018-05-13T00:07:32.231Z,99505.27
2018-05-13T00:09:59.788Z,99512.77
2018-05-13T00:12:27.329Z,99517.86
2018-05-13T00:14:54.861Z,99517.80
2018-05-13T00:17:22.389Z,99510.16
2018-05-13T00:19:49.918Z,99512.09
2018-05-13T00:22:17.482Z,99510.27
2018-05-13T00:24:45.035Z,99513.50
2018-05-13T00:27:12.576Z,99519.53
2018-05-13T00:29:40.106Z,99516.77
2018-05-13T00:32:07.630Z,99521.52
2018-05-13T00:34:35.151Z,99517.01
2018-05-13T00:37:02.655Z,99526.94
2018-05-13T00:39:30.177Z,99519.66
2018-05-13T00:41:57.701Z,99521.86
2018-05-13T00:44:25.214Z,99530.55
2018-05-13T00:46:52.721Z,99533.15
2018-05-13T00:49:20.238Z,99532.04
2018-05-13T00:51:47.749Z,99548.17
2018-05-13T00:54:27.149Z,99548.18
2018-05-13T00:56:54.635Z,99541.15
2018-05-13T00:59:22.186Z,99549.80
2018-05-13T01:01:49.754Z,99556.68
2018-05-13T01:04:17.287Z,99553.67
2018-05-13T01:06:44.841Z,99554.36
2018-05-13T01:09:12.405Z,99555.75
2018-05-13T01:11:39.933Z,99543.63
2018-05-13T01:14:07.465Z,99532.36
2018-05-13T01:16:34.996Z,99539.62
2018-05-13T01:19:02.558Z,99530.84
2018-05-13T01:21:30.100Z,99533.30
2018-05-13T01:23:57.658Z,99529.27
2018-05-13T01:26:25.224Z,99522.98
2018-05-13T01:28:52.740Z,99520.85
2018-05-13T01:31:20.284Z,99506.78
2018-05-13T01:33:47.809Z,99510.58
2018-05-13T01:36:15.362Z,99512.94
2018-05-13T01:38:42.863Z,99508.11
2018-05-13T01:41:10.402Z,99509.09
2018-05-13T01:43:37.906Z,99516.75
2018-05-13T01:46:05.459Z,99536.11
2018-05-13T01:48:32.987Z,99541.36
2018-05-13T01:51:00.524Z,99545.22
2018-05-13T01:53:28.083Z,99544.79
2018-05-13T01:55:55.671Z,99548.09
2018-05-13T01:58:23.195Z,99544.41
2018-05-13T02:00:50.764Z,99550.75
2018-05-13T02:03:18.311Z,99563.61
2018-05-13T02:05:45.842Z,99572.52
2018-05-13T02:10:44.953Z,99576.10
2018-05-13T02:13:12.493Z,99574.20
2018-05-13T02:15:40.285Z,99573.08
2018-05-13T02:18:07.769Z,99572.34
2018-05-13T02:20:35.310Z,99575.75
2018-05-13T02:23:02.791Z,99579.60
2018-05-13T02:25:30.305Z,99584.72
2018-05-13T02:27:57.829Z,99582.17
2018-05-13T02:30:25.342Z,99584.77
2018-05-13T02:32:52.825Z,99589.37
2018-05-13T02:35:20.366Z,99582.61
2018-05-13T02:37:47.924Z,99580.74
2018-05-13T02:40:15.443Z,99585.73
2018-05-13T02:42:42.937Z,99593.38
2018-05-13T02:45:10.494Z,99586.14
2018-05-13T02:47:37.984Z,99568.60
2018-05-13T02:50:05.528Z,99553.96
2018-05-13T02:52:33.061Z,99546.33
2018-05-13T02:55:00.553Z,99549.20
2018-05-13T02:57:28.059Z,99562.38
2018-05-13T02:59:55.570Z,99560.31
2018-05-13T03:02:23.112Z,99567.75
2018-05-13T03:04:50.622Z,99567.18
2018-05-13T03:07:18.131Z,99551.19
2018-05-13T03:09:45.645Z,99552.25
2018-05-13T03:12:13.157Z,99549.88
2018-05-13T03:14:40.647Z,99550.45
2018-05-13T03:17:08.226Z,99549.75
2018-05-13T03:19:35.734Z,99551.07
2018-05-13T03:22:03.264Z,99549.13
2018-05-13T03:24:30.754Z,99551.13
2018-05-13T03:26:58.308Z,99546.74
2018-05-13T03:29:26.626Z,99537.13
2018-05-13T03:31:54.189Z,99540.79
2018-05-13T03:34:21.734Z,99526.53
2018-05-13T03:36:49.270Z,99528.86
2018-05-13T03:39:16.755Z,99540.93
2018-05-13T03:41:44.309Z,99540.89
2018-05-13T03:44:11.889Z,99541.23
2018-05-13T03:46:39.450Z,99544.94
2018-05-13T03:49:06.987Z,99546.64
2018-05-13T03:51:34.493Z,99540.77
2018-05-13T03:54:01.991Z,99544.04
2018-05-13T03:56:29.511Z,99538.80
2018-05-13T03:58:57.029Z,99523.61
2018-05-13T04:01:24.657Z,99525.34
2018-05-13T04:03:52.347Z,99528.58
2018-05-13T04:06:19.862Z,99523.30
2018-05-13T04:08:59.246Z,99524.48
2018-05-13T04:11:38.468Z,99512.41
2018-05-13T04:14:17.587Z,99516.05
2018-05-13T04:16:45.960Z,99509.98
2018-05-13T04:19:13.481Z,99508.86
2018-05-13T04:21:41.018Z,99494.34
2018-05-13T04:24:08.570Z,99490.89
2018-05-13T04:26:36.094Z,99479.18
2018-05-13T04:29:03.656Z,99480.95
2018-05-13T04:31:31.146Z,99479.22
2018-05-13T04:33:58.640Z,99484.31
2018-05-13T04:36:26.157Z,99495.63
2018-05-13T04:38:53.694Z,99508.16
2018-05-13T04:41:21.168Z,99523.30
2018-05-13T04:43:48.687Z,99536.34
2018-05-13T04:46:16.408Z,99547.06
2018-05-13T04:48:44.247Z,99561.14
2018-05-13T04:51:11.824Z,99584.26
2018-05-13T04:53:39.337Z,99587.99
2018-05-13T04:56:06.842Z,99601.87
2018-05-13T04:58:34.356Z,99594.98
2018-05-13T05:01:01.852Z,99598.63
2018-05-13T05:03:29.362Z,99603.89
2018-05-13T05:05:56.854Z,99628.30
2018-05-13T05:08:24.352Z,99637.42
2018-05-13T05:10:51.837Z,99636.45
2018-05-13T05:13:19.349Z,99643.91
2018-05-13T05:15:46.876Z,99649.45
2018-05-13T05:18:14.434Z,99638.20
2018-05-13T05:20:41.963Z,99620.37
2018-05-13T05:23:09.475Z,99601.59
2018-05-13T05:25:37.015Z,99606.73
2018-05-13T05:28:04.547Z,99624.80
2018-05-13T05:30:32.057Z,99643.96
2018-05-13T05:32:59.585Z,99653.32
2018-05-13T05:35:27.123Z,99657.84
2018-05-13T05:37:54.666Z,99663.95
2018-05-13T05:40:22.173Z,99674.38
2018-05-13T05:42:49.703Z,99686.09
2018-05-13T05:45:17.246Z,99692.95
2018-05-13T05:47:44.775Z,99686.16
2018-05-13T05:50:12.322Z,99691.41
2018-05-13T05:52:39.849Z,99688.46
2018-05-13T05:55:07.419Z,99675.52
2018-05-13T05:57:34.911Z,99661.86
2018-05-13T06:00:02.469Z,99648.13
2018-05-13T06:02:29.974Z,99638.41
2018-05-13T06:04:57.518Z,99628.06
2018-05-13T06:07:25.258Z,99632.54
2018-05-13T06:09:52.791Z,99634.68
2018-05-13T06:12:20.342Z,99632.52
2018-05-13T06:14:47.875Z,99633.70
2018-05-13T06:17:15.403Z,99634.95
2018-05-13T06:19:43.037Z,99637.59
2018-05-13T06:22:10.455Z,99640.58
2018-05-13T06:24:38.006Z,99631.00
2018-05-13T06:27:05.548Z,99635.71
2018-05-13T06:29:33.088Z,99640.05
2018-05-13T06:32:00.628Z,99646.89
2018-05-13T06:34:28.170Z,99648.53
2018-05-13T06:36:55.695Z,99644.51
2018-05-13T06:39:23.218Z,99651.43
2018-05-13T06:41:50.791Z,99652.81
2018-05-13T06:44:18.397Z,99646.66
2018-05-13T06:46:46.044Z,99652.97
2018-05-13T06:49:13.589Z,99657.45
2018-05-13T06:51:41.166Z,99658.72
2018-05-13T06:54:08.754Z,99659.06
2018-05-13T06:56:36.408Z,99655.85
2018-05-13T06:59:04.551Z,99661.63
2018-05-13T07:01:32.201Z,99668.71
2018-05-13T07:03:59.782Z,99677.53
2018-05-13T07:06:27.353Z,99687.73
2018-05-13T07:08:55.100Z,99692.22
2018-05-13T07:11:22.711Z,99693.03
2018-05-13T07:13:50.334Z,99705.41
2018-05-13T07:16:17.925Z,99708.51
2018-05-13T07:18:45.480Z,99721.22
2018-05-13T07:21:13.129Z,99733.08
2018-05-13T07:23:40.771Z,99738.95
2018-05-13T07:26:08.353Z,99740.97
2018-05-13T07:28:35.880Z,99739.09
2018-05-13T07:31:03.463Z,99738.61
2018-05-13T07:33:31.096Z,99740.63
2018-05-13T07:35:58.654Z,99736.97
2018-05-13T07:38:26.226Z,99737.35
2018-05-13T07:40:53.811Z,99726.66
2018-05-13T07:43:21.427Z,99740.46
2018-05-13T07:45:49.028Z,99736.63
2018-05-13T07:48:16.563Z,99739.77
2018-05-13T07:50:44.208Z,99741.66
2018-05-13T07:53:14.357Z,99739.05
2018-05-13T07:55:41.972Z,99727.34
2018-05-13T07:58:09.640Z,99729.28
2018-05-13T08:00:37.605Z,99724.64
2018-05-13T08:03:05.172Z,99727.58
2018-05-13T08:05:32.764Z,99723.78
2018-05-13T08:08:00.314Z,99730.06
2018-05-13T08:10:27.927Z,99731.53
2018-05-13T08:12:55.446Z,99731.31
2018-05-13T08:15:22.991Z,99744.28
2018-05-13T08:17:50.547Z,99743.50
2018-05-13T08:20:18.177Z,99747.09
2018-05-13T08:22:45.654Z,99755.91
2018-05-13T08:25:13.265Z,99760.33
2018-05-13T08:27:40.805Z,99772.18
2018-05-13T08:30:08.334Z,99773.13
2018-05-13T08:32:35.895Z,99774.23
2018-05-13T08:35:03.603Z,99775.21
2018-05-13T08:37:31.167Z,99772.78
2018-05-13T08:39:58.751Z,99776.05
2018-05-13T08:42:26.364Z,99779.09
2018-05-13T08:44:53.996Z,99779.96
2018-05-13T08:47:21.554Z,99788.30
2018-05-13T08:49:49.166Z,99781.71
2018-05-13T08:52:16.816Z,99782.13
2018-05-13T08:54:44.399Z,99788.09
2018-05-13T08:57:11.972Z,99787.59
2018-05-13T08:59:39.795Z,99787.67
2018-05-13T09:02:07.246Z,99787.58
2018-05-13T09:04:34.721Z,99789.69
2018-05-13T09:07:02.216Z,99786.60
2018-05-13T09:09:29.686Z,99783.19
2018-05-13T09:11:57.174Z,99795.85
2018-05-13T09:14:24.672Z,99791.20
2018-05-13T09:16:52.182Z,99798.28
2018-05-13T09:19:19.664Z,99793.77
2018-05-13T09:21:47.160Z,99799.88
2018-05-13T09:24:14.638Z,99803.25
2018-05-13T09:26:42.195Z,99790.08
2018-05-13T09:29:09.667Z,99793.20
2018-05-13T09:31:37.224Z,99800.30
2018-05-13T09:34:04.717Z,99800.49
2018-05-13T09:36:32.198Z,99800.60
2018-05-13T09:38:59.916Z,99800.99
2018-05-13T09:41:27.394Z,99800.73
2018-05-13T09:43:54.895Z,99798.55
2018-05-13T09:46:22.374Z,99797.09
2018-05-13T09:48:49.976Z,99794.68
2018-05-13T09:51:17.533Z,99795.48
2018-05-13T09:53:44.978Z,99800.01
2018-05-13T09:56:12.459Z,99803.42
2018-05-13T09:58:39.966Z,99805.09
2018-05-13T10:01:07.437Z,99805.25
2018-05-13T10:03:34.930Z,99803.91
2018-05-13T10:06:02.409Z,99810.00
2018-05-13T10:08:29.911Z,99813.48
2018-05-13T10:10:57.382Z,99821.47
2018-05-13T10:13:24.870Z,99824.97
2018-05-13T10:15:52.403Z,99823.52
2018-05-13T10:18:19.892Z,99822.44
2018-05-13T10:20:47.365Z,99826.66
2018-05-13T10:23:14.849Z,99823.65
2018-05-13T10:25:42.334Z,99821.29
2018-05-13T10:28:09.817Z,99825.41
2018-05-13T10:30:37.289Z,99816.12
2018-05-13T10:33:04.769Z,99813.08
2018-05-13T10:35:32.241Z,99811.09
2018-05-13T10:37:59.732Z,99803.08
2018-05-13T10:40:27.206Z,99804.10
2018-05-13T10:42:54.693Z,99798.61
2018-05-13T10:45:22.801Z,99808.53
2018-05-13T10:47:50.294Z,99805.83
2018-05-13T10:50:17.769Z,99810.51
2018-05-13T10:52:45.273Z,99811.69
2018-05-13T10:55:12.741Z,99806.31
2018-05-13T10:57:40.272Z,99805.27
2018-05-13T11:00:07.729Z,99811.08
2018-05-13T11:02:35.205Z,99816.19
2018-05-13T11:05:03.558Z,99821.00
2018-05-13T11:07:31.033Z,99823.17
2018-05-13T11:09:58.527Z,99820.16
2018-05-13T11:12:25.993Z,99823.11
2018-05-13T11:14:53.490Z,99818.36
2018-05-13T11:17:20.965Z,99819.80
2018-05-13T11:19:48.458Z,99817.67
2018-05-13T11:22:15.934Z,99815.84
2018-05-13T11:24:43.417Z,99822.58
2018-05-13T11:27:10.901Z,99813.52
2018-05-13T11:29:38.400Z,99817.34
2018-05-13T11:32:05.866Z,99815.14
2018-05-13T11:34:33.380Z,99816.69
2018-05-13T11:37:00.849Z,99808.34
2018-05-13T11:39:28.342Z,99812.60
2018-05-13T11:41:55.810Z,99806.03
2018-05-13T11:44:23.541Z,99802.80
2018-05-13T11:46:51.042Z,99802.23
2018-05-13T11:49:18.538Z,99797.31
2018-05-13T11:51:46.009Z,99799.09
2018-05-13T11:54:13.498Z,99794.23
2018-05-13T11:56:40.958Z,99800.75
2018-05-13T11:59:08.458Z,99799.36
2018-05-13T12:01:35.922Z,99796.34
2018-05-13T12:04:03.410Z,99801.16
2018-05-13T12:06:30.882Z,99786.58
2018-05-13T12:08:58.373Z,99795.64
2018-05-13T12:11:31.746Z,99791.98
2018-05-13T12:13:59.227Z,99790.92
2018-05-13T12:16:27.492Z,99776.75
2018-05-13T12:18:54.990Z,99793.13
2018-05-13T12:21:22.475Z,99786.41
2018-05-13T12:23:49.938Z,99785.16
2018-05-13T12:26:17.424Z,99787.34
2018-05-13T12:28:44.975Z,99777.69
2018-05-13T12:31:12.398Z,99774.13
2018-05-13T12:33:39.869Z,99769.16
2018-05-13T12:36:07.365Z,99773.37
2018-05-13T12:38:34.843Z,99770.12
2018-05-13T12:41:02.347Z,99765.11
2018-05-13T12:43:29.805Z,99761.31
2018-05-13T12:45:57.294Z,99767.72
2018-05-13T12:48:24.765Z,99765.62
2018-05-13T12:50:52.246Z,99761.20
2018-05-13T12:53:19.706Z,99761.44
2018-05-13T12:55:47.185Z,99773.09
2018-05-13T12:58:14.650Z,99784.73
2018-05-13T13:00:42.133Z,99786.72
2018-05-13T13:03:09.627Z,99790.73
2018-05-13T13:05:37.112Z,99788.86
2018-05-13T13:08:04.588Z,99775.14
2018-05-13T13:10:32.122Z,99769.45
2018-05-13T13:12:59.641Z,99755.13
2018-05-13T13:15:27.102Z,99755.08
2018-05-13T13:17:54.569Z,99757.36
2018-05-13T13:20:22.061Z,99751.90
2018-05-13T13:22:49.539Z,99756.58
2018-05-13T13:25:17.030Z,99758.77
2018-05-13T13:27:44.502Z,99754.25
2018-05-13T13:30:11.981Z,99744.36
2018-05-13T13:32:39.454Z,99736.26
2018-05-13T13:35:07.210Z,99735.41
2018-05-13T13:37:34.678Z,99729.36
2018-05-13T13:40:02.185Z,99735.25
2018-05-13T13:42:29.666Z,99721.34
2018-05-13T13:44:57.148Z,99706.08
2018-05-13T13:47:25.746Z,99722.84
2018-05-13T13:49:53.134Z,99719.77
2018-05-13T13:52:20.617Z,99722.94
2018-05-13T13:54:48.390Z,99723.40
2018-05-13T13:57:15.904Z,99727.05
2018-05-13T13:59:43.373Z,99713.97
2018-05-13T14:02:10.859Z,99714.56
2018-05-13T14:04:38.378Z,99701.01
2018-05-13T14:07:05.836Z,99690.38
2018-05-13T14:09:33.312Z,99691.80
2018-05-13T14:12:00.860Z,99698.23
2018-05-13T14:14:28.278Z,99709.78
2018-05-13T14:16:55.774Z,99718.41
2018-05-13T14:19:23.234Z,99721.22
2018-05-13T14:21:50.723Z,99727.09
2018-05-13T14:24:18.194Z,99716.88
2018-05-13T14:26:45.683Z,99705.49
2018-05-13T14:29:13.175Z,99702.63
2018-05-13T14:31:40.660Z,99707.36
2018-05-13T14:34:08.138Z,99709.39
2018-05-13T14:36:35.634Z,99717.34
2018-05-13T14:39:11.822Z,99718.75
2018-05-13T14:41:30.647Z,99718.72
2018-05-13T14:43:58.082Z,99717.91
2018-05-13T14:46:25.577Z,99716.52
2018-05-13T14:48:53.082Z,99721.70
2018-05-13T14:51:20.567Z,99726.13
2018-05-13T14:53:48.039Z,99719.64
2018-05-13T14:56:15.531Z,99721.41
2018-05-13T14:58:42.998Z,99718.46
2018-05-13T15:01:10.508Z,99721.63
2018-05-13T15:03:37.973Z,99722.82
2018-05-13T15:06:05.438Z,99724.19
2018-05-13T15:08:32.922Z,99723.14
2018-05-13T15:11:00.386Z,99720.41
2018-05-13T15:13:27.875Z,99721.64
2018-05-13T15:15:55.342Z,99722.80
2018-05-13T15:18:22.846Z,99722.03
2018-05-13T15:20:50.327Z,99733.97
2018-05-13T15:23:17.822Z,99732.58
2018-05-13T15:25:45.307Z,99733.16
2018-05-13T15:28:12.794Z,99738.02
2018-05-13T15:30:40.265Z,99735.20
2018-05-13T15:33:07.763Z,99741.34
2018-05-13T15:35:35.234Z,99743.13
2018-05-13T15:38:02.729Z,99740.95
2018-05-13T15:40:30.204Z,99739.04
2018-05-13T15:42:57.753Z,99736.39
2018-05-13T15:45:25.173Z,99726.95
2018-05-13T15:47:52.662Z,99725.95
2018-05-13T15:50:20.139Z,99735.05
2018-05-13T15:52:47.623Z,99736.08
2018-05-13T15:55:15.189Z,99735.77
2018-05-13T15:57:42.596Z,99741.81
2018-05-13T16:00:10.057Z,99733.13
2018-05-13T16:02:37.545Z,99737.23
2018-05-13T16:05:05.023Z,99742.31
2018-05-13T16:07:32.516Z,99740.88
2018-05-13T16:09:59.992Z,99740.64
2018-05-13T16:12:27.485Z,99741.62
2018-05-13T16:14:54.954Z,99739.25
2018-05-13T16:17:22.445Z,99740.75
2018-05-13T16:19:49.998Z,99739.63
2018-05-13T16:22:17.398Z,99734.84
2018-05-13T16:24:44.891Z,99731.98
2018-05-13T16:27:12.371Z,99735.12
2018-05-13T16:29:39.948Z,99738.50
2018-05-13T16:32:07.347Z,99734.88
2018-05-13T16:34:34.838Z,99736.64
2018-05-13T16:37:02.305Z,99733.64
2018-05-13T16:39:29.800Z,99739.66
2018-05-13T16:41:57.316Z,99732.32
2018-05-13T16:44:24.806Z,99731.78
2018-05-13T16:46:53.049Z,99729.34
2018-05-13T16:49:20.541Z,99736.16
2018-05-13T16:51:48.018Z,99731.70
2018-05-13T16:54:15.518Z,99724.70
2018-05-13T16:56:43.006Z,99724.41
2018-05-13T16:59:10.490Z,99731.39
2018-05-13T17:01:37.958Z,99729.19
2018-05-13T17:04:05.446Z,99729.38
2018-05-13T17:06:32.919Z,99733.88
2018-05-13T17:09:00.411Z,99732.50
2018-05-13T17:11:27.884Z,99736.50
2018-05-13T17:13:55.376Z,99742.16
2018-05-13T17:16:22.857Z,99745.75
2018-05-13T17:18:50.350Z,99741.14
2018-05-13T17:21:17.817Z,99750.53
2018-05-13T17:23:45.310Z,99753.84
2018-05-13T17:26:12.788Z,99753.72
2018-05-13T17:28:40.279Z,99759.72
2018-05-13T17:31:07.750Z,99763.10
2018-05-13T17:33:35.234Z,99764.23
2018-05-13T17:36:02.718Z,99760.02
2018-05-13T17:38:30.210Z,99762.05
2018-05-13T17:40:57.697Z,99754.97
2018-05-13T17:43:25.211Z,99752.89
2018-05-13T17:45:52.716Z,99755.64
2018-05-13T17:48:20.183Z,99758.13
2018-05-13T17:50:47.678Z,99753.25
2018-05-13T17:53:15.230Z,99757.20
2018-05-13T17:55:42.735Z,99750.53
2018-05-13T17:58:10.201Z,99749.16
2018-05-13T18:00:37.696Z,99749.89
2018-05-13T18:03:05.247Z,99748.36
2018-05-13T18:05:32.682Z,99751.66
2018-05-13T18:08:00.161Z,99749.81
2018-05-13T18:10:27.654Z,99747.42
2018-05-13T18:12:55.128Z,99754.66
2018-05-13T18:15:22.607Z,99756.30
2018-05-13T18:17:50.089Z,99763.41
2018-05-13T18:20:17.586Z,99751.38
2018-05-13T18:22:45.069Z,99766.13
2018-05-13T18:25:12.559Z,99766.56
2018-05-13T18:27:40.026Z,99764.51
2018-05-13T18:30:07.517Z,99763.00
2018-05-13T18:32:34.987Z,99766.28
2018-05-13T18:35:02.475Z,99765.05
2018-05-13T18:37:29.949Z,99769.02
2018-05-13T18:39:57.436Z,99753.20
2018-05-13T18:42:24.923Z,99761.29
2018-05-13T18:44:52.410Z,99762.54
2018-05-13T18:47:19.881Z,99762.97
2018-05-13T18:49:47.374Z,99754.64
2018-05-13T18:52:14.838Z,99753.31
2018-05-13T18:54:42.335Z,99747.33
2018-05-13T18:57:09.808Z,99750.90
2018-05-13T18:59:37.301Z,99756.07
2018-05-13T19:02:04.778Z,99753.64
2018-05-13T19:04:32.247Z,99761.56
2018-05-13T19:06:59.746Z,99762.11
2018-05-13T19:09:27.235Z,99755.86
2018-05-13T19:11:54.728Z,99752.85
2018-05-13T19:14:22.193Z,99765.56
2018-05-13T19:16:49.680Z,99767.62
2018-05-13T19:19:17.226Z,99759.73
2018-05-13T19:21:44.710Z,99758.38
2018-05-13T19:24:12.182Z,99770.90
2018-05-13T19:26:39.671Z,99778.96
2018-05-13T19:29:07.284Z,99781.98
2018-05-13T19:31:34.793Z,99780.62
2018-05-13T19:34:02.254Z,99793.84
2018-05-13T19:36:29.737Z,99800.14
2018-05-13T19:38:57.209Z,99788.85
2018-05-13T19:41:24.750Z,99792.11
2018-05-13T19:43:52.222Z,99790.50
2018-05-13T19:46:19.714Z,99784.10
2018-05-13T19:48:47.259Z,99787.50
2018-05-13T19:51:14.719Z,99782.73
2018-05-13T19:53:42.190Z,99787.09
2018-05-13T19:56:09.674Z,99788.60
2018-05-13T19:58:37.149Z,99790.11
2018-05-13T20:01:04.634Z,99787.50
2018-05-13T20:03:32.296Z,99785.50
2018-05-13T20:05:59.610Z,99787.59
2018-05-13T20:08:27.074Z,99791.56
2018-05-13T20:10:54.580Z,99796.30
2018-05-13T20:13:22.054Z,99798.38
2018-05-13T20:15:49.538Z,99808.17
2018-05-13T20:18:17.011Z,99811.31
2018-05-13T20:20:44.493Z,99808.88
2018-05-13T20:23:23.658Z,99812.02
2018-05-13T20:25:51.098Z,99817.47
2018-05-13T20:28:18.581Z,99813.00
2018-05-13T20:30:46.042Z,99815.58
2018-05-13T20:33:13.530Z,99808.95
2018-05-13T20:35:40.998Z,99815.66
2018-05-13T20:38:08.483Z,99807.48
2018-05-13T20:40:35.958Z,99808.55
2018-05-13T20:43:03.440Z,99809.92
2018-05-13T20:45:30.905Z,99802.56
2018-05-13T20:47:58.392Z,99807.86
2018-05-13T20:50:25.858Z,99809.11
2018-05-13T20:52:53.349Z,99816.19
2018-05-13T20:55:20.813Z,99812.37
2018-05-13T20:57:48.306Z,99827.34
2018-05-13T21:00:15.784Z,99834.44
2018-05-13T21:02:43.278Z,99837.98
2018-05-13T21:05:10.750Z,99836.92
2018-05-13T21:07:38.250Z,99839.36
2018-05-13T21:10:05.714Z,99842.08
2018-05-13T21:12:33.226Z,99840.02
2018-05-13T21:15:00.689Z,99845.21
2018-05-13T21:17:28.187Z,99841.53
2018-05-13T21:19:55.656Z,99840.01
2018-05-13T21:22:23.137Z,99836.09
2018-05-13T21:24:50.601Z,99843.33
2018-05-13T21:27:18.086Z,99837.70
2018-05-13T21:29:45.551Z,99839.37
2018-05-13T21:32:13.045Z,99833.09
2018-05-13T21:34:40.520Z,99823.43
2018-05-13T21:37:07.981Z,99829.84
2018-05-13T21:39:35.470Z,99817.75
2018-05-13T21:42:02.934Z,99817.75
2018-05-13T21:44:30.428Z,99812.84
2018-05-13T21:46:57.893Z,99814.50
2018-05-13T21:49:25.378Z,99805.80
2018-05-13T21:51:52.838Z,99801.02
2018-05-13T21:54:20.336Z,99798.17
2018-05-13T21:56:47.813Z,99800.61
2018-05-13T21:59:15.311Z,99793.55
2018-05-13T22:01:42.801Z,99803.08
2018-05-13T22:04:10.283Z,99791.78
2018-05-13T22:06:37.755Z,99789.88
2018-05-13T22:09:06.157Z,99777.88
2018-05-13T22:11:33.685Z,99777.51
2018-05-13T22:14:01.175Z,99777.11
2018-05-13T22:16:28.642Z,99762.55
2018-05-13T22:18:56.134Z,99763.48
2018-05-13T22:21:23.603Z,99761.22
2018-05-13T22:23:51.098Z,99765.19
2018-05-13T22:26:18.570Z,99757.70
2018-05-13T22:28:46.062Z,99753.78
2018-05-13T22:31:13.536Z,99747.39
2018-05-13T22:33:41.027Z,99744.39
2018-05-13T22:36:08.502Z,99739.38
2018-05-13T22:38:35.992Z,99750.13
2018-05-13T22:41:03.474Z,99746.17
2018-05-13T22:43:31.019Z,99744.43
2018-05-13T22:45:58.491Z,99751.23
2018-05-13T22:48:25.978Z,99751.78
2018-05-13T22:50:53.451Z,99749.05
2018-05-13T22:53:20.923Z,99742.91
2018-05-13T22:55:48.410Z,99739.00
2018-05-13T22:58:15.875Z,99739.83
2018-05-13T23:00:43.369Z,99742.55
2018-05-13T23:03:10.895Z,99741.44
2018-05-13T23:05:38.386Z,99723.38
2018-05-13T23:08:05.878Z,99720.78
2018-05-13T23:10:33.362Z,99722.81
2018-05-13T23:13:00.822Z,99718.48
2018-05-13T23:15:28.311Z,99720.09
2018-05-13T23:17:55.775Z,99724.17
2018-05-13T23:20:23.261Z,99722.15
2018-05-13T23:22:50.725Z,99723.52
2018-05-13T23:25:18.209Z,99720.25
2018-05-13T23:27:45.673Z,99707.35
2018-05-13T23:30:13.173Z,99714.41
2018-05-13T23:32:40.634Z,99712.09
2018-05-13T23:35:08.123Z,99724.74
2018-05-13T23:37:36.309Z,99732.08
2018-05-13T23:40:03.794Z,99720.91
2018-05-13T23:42:31.258Z,99725.98
2018-05-13T23:44:58.741Z,99723.09
2018-05-13T23:47:26.205Z,99723.39
2018-05-13T23:49:53.689Z,99728.95
2018-05-13T23:52:21.161Z,99712.63
2018-05-13T23:54:48.657Z,99717.66
2018-05-13T23:57:16.117Z,99726.11
2018-05-13T23:59:43.612Z,99721.48
